sensor_id;sensor_type;location;lat;lon;timestamp;pressure;altitude;pressure_sealevel;temperature;humidity
61573;BME280;47465;43.094;12.434;2023-10-08T00:01:02;99472.41;;;16.80;95.46
61573;BME280;47465;43.094;12.434;2023-10-08T00:03:29;99476.81;;;16.83;94.42
61573;BME280;47465;43.094;12.434;2023-10-08T00:05:55;99472.97;;;16.67;95.28
61573;BME280;47465;43.094;12.434;2023-10-08T00:08:22;99438.13;;;16.43;94.74
61573;BME280;47465;43.094;12.434;2023-10-08T00:10:48;99459.16;;;16.54;94.83
61573;BME280;47465;43.094;12.434;2023-10-08T00:13:15;99460.66;;;16.61;95.50
61573;BME280;47465;43.094;12.434;2023-10-08T00:15:43;99489.97;;;16.43;98.58
61573;BME280;47465;43.094;12.434;2023-10-08T00:18:43;99482.34;;;16.33;100.00
61573;BME280;47465;43.094;12.434;2023-10-08T00:21:17;99480.34;;;16.39;100.00
61573;BME280;47465;43.094;12.434;2023-10-08T00:23:46;99429.97;;;16.00;100.00
61573;BME280;47465;43.094;12.434;2023-10-08T00:26:18;99472.53;;;16.33;100.00
61573;BME280;47465;43.094;12.434;2023-10-08T00:28:47;99471.75;;;16.30;100.00
61573;BME280;47465;43.094;12.434;2023-10-08T00:31:13;99466.53;;;16.27;100.00
61573;BME280;47465;43.094;12.434;2023-10-08T00:33:43;99472.38;;;16.36;99.95
61573;BME280;47465;43.094;12.434;2023-10-08T00:36:10;99474.25;;;16.34;100.00
61573;BME280;47465;43.094;12.434;2023-10-08T00:38:44;99452.34;;;16.23;100.00
61573;BME280;47465;43.094;12.434;2023-10-08T00:41:13;99448.66;;;16.26;99.85
61573;BME280;47465;43.094;12.434;2023-10-08T00:43:40;99442.06;;;16.11;100.00
61573;BME280;47465;43.094;12.434;2023-10-08T00:46:07;99473.56;;;16.29;100.00
61573;BME280;47465;43.094;12.434;2023-10-08T00:49:06;99465.06;;;16.18;100.00
61573;BME280;47465;43.094;12.434;2023-10-08T00:52:06;99458.25;;;16.09;100.00
61573;BME280;47465;43.094;12.434;2023-10-08T00:54:48;99460.94;;;16.09;100.00
61573;BME280;47465;43.094;12.434;2023-10-08T00:57:36;99453.94;;;16.05;100.00
61573;BME280;47465;43.094;12.434;2023-10-08T01:00:04;99454.84;;;16.04;100.00
61573;BME280;47465;43.094;12.434;2023-10-08T01:02:32;99427.78;;;15.87;100.00
61573;BME280;47465;43.094;12.434;2023-10-08T01:05:31;99442.25;;;15.82;100.00
61573;BME280;47465;43.094;12.434;2023-10-08T01:08:12;99449.97;;;15.92;100.00
61573;BME280;47465;43.094;12.434;2023-10-08T01:10:43;99435.88;;;15.85;100.00
61573;BME280;47465;43.094;12.434;2023-10-08T01:13:09;99458.47;;;15.79;100.00
61573;BME280;47465;43.094;12.434;2023-10-08T01:15:41;99450.31;;;15.82;100.00
61573;BME280;47465;43.094;12.434;2023-10-08T01:18:10;99429.50;;;15.64;100.00
61573;BME280;47465;43.094;12.434;2023-10-08T01:20:52;99434.28;;;15.56;100.00
61573;BME280;47465;43.094;12.434;2023-10-08T01:23:20;99421.50;;;15.39;100.00
61573;BME280;47465;43.094;12.434;2023-10-08T01:25:47;99461.16;;;15.79;100.00
61573;BME280;47465;43.094;12.434;2023-10-08T01:28:18;99458.41;;;15.81;100.00
61573;BME280;47465;43.094;12.434;2023-10-08T01:30:55;99443.28;;;15.78;100.00
61573;BME280;47465;43.094;12.434;2023-10-08T01:33:23;99429.63;;;15.61;100.00
61573;BME280;47465;43.094;12.434;2023-10-08T01:35:54;99453.94;;;15.81;100.00
61573;BME280;47465;43.094;12.434;2023-10-08T01:38:21;99437.13;;;15.76;100.00
61573;BME280;47465;43.094;12.434;2023-10-08T01:40:49;99433.06;;;15.65;100.00
61573;BME280;47465;43.094;12.434;2023-10-08T01:43:17;99426.19;;;15.57;100.00
61573;BME280;47465;43.094;12.434;2023-10-08T01:45:43;99426.94;;;15.61;100.00
61573;BME280;47465;43.094;12.434;2023-10-08T01:48:14;99455.19;;;15.71;100.00
61573;BME280;47465;43.094;12.434;2023-10-08T01:50:46;99421.00;;;15.53;100.00
61573;BME280;47465;43.094;12.434;2023-10-08T01:53:13;99438.22;;;15.71;100.00
61573;BME280;47465;43.094;12.434;2023-10-08T01:55:42;99448.56;;;15.81;100.00
61573;BME280;47465;43.094;12.434;2023-10-08T01:58:15;99418.72;;;15.66;100.00
61573;BME280;47465;43.094;12.434;2023-10-08T02:00:43;99425.06;;;15.63;100.00
61573;BME280;47465;43.094;12.434;2023-10-08T02:03:11;99394.03;;;15.32;100.00
61573;BME280;47465;43.094;12.434;2023-10-08T02:05:39;99429.13;;;15.50;100.00
61573;BME280;47465;43.094;12.434;2023-10-08T02:08:08;99426.06;;;15.60;100.00
61573;BME280;47465;43.094;12.434;2023-10-08T02:10:34;99402.09;;;15.32;100.00
61573;BME280;47465;43.094;12.434;2023-10-08T02:13:02;99427.41;;;15.24;100.00
61573;BME280;47465;43.094;12.434;2023-10-08T02:15:28;99429.81;;;15.31;100.00
61573;BME280;47465;43.094;12.434;2023-10-08T02:17:55;99417.28;;;15.32;100.00
61573;BME280;47465;43.094;12.434;2023-10-08T02:20:21;99431.34;;;15.38;100.00
61573;BME280;47465;43.094;12.434;2023-10-08T02:22:47;99428.09;;;15.54;100.00
61573;BME280;47465;43.094;12.434;2023-10-08T02:25:14;99402.72;;;15.39;100.00
61573;BME280;47465;43.094;12.434;2023-10-08T02:27:40;99418.00;;;15.37;100.00
61573;BME280;47465;43.094;12.434;2023-10-08T02:30:09;99426.50;;;15.48;100.00
61573;BME280;47465;43.094;12.434;2023-10-08T02:32:38;99424.22;;;15.37;100.00
61573;BME280;47465;43.094;12.434;2023-10-08T02:35:08;99440.00;;;15.47;100.00
61573;BME280;47465;43.094;12.434;2023-10-08T02:37:36;99411.38;;;15.22;100.00
61573;BME280;47465;43.094;12.434;2023-10-08T02:40:07;99432.22;;;15.39;100.00
61573;BME280;47465;43.094;12.434;2023-10-08T02:42:41;99431.69;;;15.29;100.00
61573;BME280;47465;43.094;12.434;2023-10-08T02:45:10;99416.69;;;15.24;100.00
61573;BME280;47465;43.094;12.434;2023-10-08T02:47:40;99424.94;;;15.17;100.00
61573;BME280;47465;43.094;12.434;2023-10-08T02:50:08;99415.34;;;15.12;100.00
61573;BME280;47465;43.094;12.434;2023-10-08T02:52:34;99414.59;;;15.07;100.00
61573;BME280;47465;43.094;12.434;2023-10-08T02:55:00;99372.63;;;14.82;100.00
61573;BME280;47465;43.094;12.434;2023-10-08T02:57:26;99392.03;;;14.89;100.00
61573;BME280;47465;43.094;12.434;2023-10-08T02:59:55;99405.38;;;14.90;100.00
61573;BME280;47465;43.094;12.434;2023-10-08T03:02:22;99395.06;;;14.78;100.00
61573;BME280;47465;43.094;12.434;2023-10-08T03:04:48;99428.69;;;14.87;100.00
61573;BME280;47465;43.094;12.434;2023-10-08T03:07:17;99428.63;;;14.88;100.00
61573;BME280;47465;43.094;12.434;2023-10-08T03:09:58;99431.28;;;14.90;100.00
61573;BME280;47465;43.094;12.434;2023-10-08T03:12:32;99386.56;;;14.65;100.00
61573;BME280;47465;43.094;12.434;2023-10-08T03:14:58;99418.38;;;14.74;100.00
61573;BME280;47465;43.094;12.434;2023-10-08T03:17:38;99425.31;;;14.82;100.00
61573;BME280;47465;43.094;12.434;2023-10-08T03:20:14;99397.63;;;14.81;100.00
61573;BME280;47465;43.094;12.434;2023-10-08T03:23:21;99417.59;;;14.97;100.00
61573;BME280;47465;43.094;12.434;2023-10-08T03:25:52;99429.59;;;15.12;100.00
61573;BME280;47465;43.094;12.434;2023-10-08T03:28:26;99427.25;;;15.03;100.00
61573;BME280;47465;43.094;12.434;2023-10-08T03:30:53;99438.88;;;15.02;100.00
61573;BME280;47465;43.094;12.434;2023-10-08T03:33:30;99421.53;;;14.87;100.00
61573;BME280;47465;43.094;12.434;2023-10-08T03:36:00;99420.59;;;14.88;100.00
61573;BME280;47465;43.094;12.434;2023-10-08T03:38:31;99426.53;;;14.71;100.00
61573;BME280;47465;43.094;12.434;2023-10-08T03:41:09;99413.84;;;14.76;100.00
61573;BME280;47465;43.094;12.434;2023-10-08T03:43:41;99386.56;;;14.65;100.00
61573;BME280;47465;43.094;12.434;2023-10-08T03:46:49;99411.09;;;14.79;100.00
61573;BME280;47465;43.094;12.434;2023-10-08T03:49:17;99429.47;;;14.90;100.00
61573;BME280;47465;43.094;12.434;2023-10-08T03:52:03;99422.47;;;14.86;100.00
61573;BME280;47465;43.094;12.434;2023-10-08T03:54:32;99416.44;;;14.79;100.00
61573;BME280;47465;43.094;12.434;2023-10-08T03:57:01;99408.50;;;14.76;100.00
61573;BME280;47465;43.094;12.434;2023-10-08T03:59:29;99416.75;;;14.70;100.00
61573;BME280;47465;43.094;12.434;2023-10-08T04:01:57;99417.00;;;14.63;100.00
61573;BME280;47465;43.094;12.434;2023-10-08T04:04:26;99401.41;;;14.47;100.00
61573;BME280;47465;43.094;12.434;2023-10-08T04:06:56;99379.41;;;14.37;100.00
61573;BME280;47465;43.094;12.434;2023-10-08T04:09:43;99441.75;;;14.69;100.00
61573;BME280;47465;43.094;12.434;2023-10-08T04:12:11;99417.94;;;14.62;100.00
61573;BME280;47465;43.094;12.434;2023-10-08T04:14:37;99441.66;;;14.72;100.00
61573;BME280;47465;43.094;12.434;2023-10-08T04:17:02;99405.69;;;14.53;100.00
61573;BME280;47465;43.094;12.434;2023-10-08T04:19:29;99402.09;;;14.55;100.00
61573;BME280;47465;43.094;12.434;2023-10-08T04:21:56;99385.25;;;14.50;100.00
61573;BME280;47465;43.094;12.434;2023-10-08T04:24:23;99443.00;;;14.86;100.00
61573;BME280;47465;43.094;12.434;2023-10-08T04:27:02;99443.56;;;14.95;100.00
61573;BME280;47465;43.094;12.434;2023-10-08T04:29:31;99426.78;;;14.90;100.00
61573;BME280;47465;43.094;12.434;2023-10-08T04:31:58;99439.22;;;14.91;100.00
61573;BME280;47465;43.094;12.434;2023-10-08T04:34:33;99397.31;;;14.64;100.00
61573;BME280;47465;43.094;12.434;2023-10-08T04:36:59;99415.66;;;14.76;100.00
61573;BME280;47465;43.094;12.434;2023-10-08T04:39:38;99438.69;;;14.82;100.00
61573;BME280;47465;43.094;12.434;2023-10-08T04:42:07;99413.38;;;14.64;100.00
61573;BME280;47465;43.094;12.434;2023-10-08T04:44:36;99446.06;;;14.75;100.00
61573;BME280;47465;43.094;12.434;2023-10-08T04:47:04;99445.22;;;14.73;100.00
61573;BME280;47465;43.094;12.434;2023-10-08T04:49:30;99427.88;;;14.58;100.00
61573;BME280;47465;43.094;12.434;2023-10-08T04:51:59;99462.47;;;14.64;100.00
61573;BME280;47465;43.094;12.434;2023-10-08T04:54:25;99419.47;;;14.41;100.00
61573;BME280;47465;43.094;12.434;2023-10-08T04:56:56;99421.50;;;14.32;100.00
61573;BME280;47465;43.094;12.434;2023-10-08T04:59:25;99459.16;;;14.54;100.00
61573;BME280;47465;43.094;12.434;2023-10-08T05:01:58;99460.28;;;14.47;100.00
61573;BME280;47465;43.094;12.434;2023-10-08T05:04:57;99441.63;;;14.44;100.00
61573;BME280;47465;43.094;12.434;2023-10-08T05:07:43;99456.25;;;14.34;100.00
61573;BME280;47465;43.094;12.434;2023-10-08T05:10:28;99433.09;;;14.33;100.00
61573;BME280;47465;43.094;12.434;2023-10-08T05:13:12;99442.91;;;14.32;100.00
61573;BME280;47465;43.094;12.434;2023-10-08T05:15:42;99444.47;;;14.39;100.00
61573;BME280;47465;43.094;12.434;2023-10-08T05:18:27;99438.34;;;14.36;100.00
61573;BME280;47465;43.094;12.434;2023-10-08T05:21:13;99446.59;;;14.28;100.00
61573;BME280;47465;43.094;12.434;2023-10-08T05:23:51;99437.38;;;14.10;100.00
61573;BME280;47465;43.094;12.434;2023-10-08T05:26:40;99436.56;;;14.07;100.00
61573;BME280;47465;43.094;12.434;2023-10-08T05:29:09;99424.66;;;13.89;100.00
61573;BME280;47465;43.094;12.434;2023-10-08T05:32:08;99459.78;;;14.06;100.00
61573;BME280;47465;43.094;12.434;2023-10-08T05:35:08;99473.03;;;14.09;100.00
61573;BME280;47465;43.094;12.434;2023-10-08T05:38:06;99447.56;;;13.97;100.00
61573;BME280;47465;43.094;12.434;2023-10-08T05:41:05;99470.31;;;14.11;100.00
61573;BME280;47465;43.094;12.434;2023-10-08T05:43:42;99486.09;;;14.20;100.00
61573;BME280;47465;43.094;12.434;2023-10-08T05:46:27;99461.44;;;14.10;100.00
61573;BME280;47465;43.094;12.434;2023-10-08T05:49:11;99488.25;;;14.37;100.00
61573;BME280;47465;43.094;12.434;2023-10-08T05:51:56;99468.81;;;14.32;100.00
61573;BME280;47465;43.094;12.434;2023-10-08T05:54:39;99472.13;;;14.40;100.00
61573;BME280;47465;43.094;12.434;2023-10-08T05:57:23;99493.44;;;14.71;100.00
61573;BME280;47465;43.094;12.434;2023-10-08T06:00:05;99433.84;;;14.38;100.00
61573;BME280;47465;43.094;12.434;2023-10-08T06:02:48;99487.13;;;14.74;100.00
61573;BME280;47465;43.094;12.434;2023-10-08T06:05:33;99491.28;;;14.83;100.00
61573;BME280;47465;43.094;12.434;2023-10-08T06:08:09;99506.94;;;14.96;100.00
61573;BME280;47465;43.094;12.434;2023-10-08T06:10:40;99444.84;;;14.57;100.00
61573;BME280;47465;43.094;12.434;2023-10-08T06:13:24;99522.16;;;15.21;100.00
61573;BME280;47465;43.094;12.434;2023-10-08T06:16:23;99500.09;;;15.13;100.00
61573;BME280;47465;43.094;12.434;2023-10-08T06:19:07;99517.47;;;15.28;100.00
61573;BME280;47465;43.094;12.434;2023-10-08T06:21:34;99500.69;;;15.23;100.00
61573;BME280;47465;43.094;12.434;2023-10-08T06:23:59;99488.38;;;15.17;100.00
61573;BME280;47465;43.094;12.434;2023-10-08T06:26:26;99498.59;;;15.31;100.00
61573;BME280;47465;43.094;12.434;2023-10-08T06:28:52;99495.78;;;15.35;100.00
61573;BME280;47465;43.094;12.434;2023-10-08T06:31:24;99509.16;;;15.60;100.00
61573;BME280;47465;43.094;12.434;2023-10-08T06:33:52;99507.84;;;15.74;100.00
61573;BME280;47465;43.094;12.434;2023-10-08T06:36:18;99526.75;;;15.94;100.00
61573;BME280;47465;43.094;12.434;2023-10-08T06:38:49;99529.09;;;16.04;100.00
61573;BME280;47465;43.094;12.434;2023-10-08T06:41:16;99529.63;;;16.13;100.00
61573;BME280;47465;43.094;12.434;2023-10-08T06:43:46;99495.09;;;16.04;100.00
61573;BME280;47465;43.094;12.434;2023-10-08T06:46:16;99479.63;;;16.11;100.00
61573;BME280;47465;43.094;12.434;2023-10-08T06:48:46;99516.53;;;16.51;100.00
61573;BME280;47465;43.094;12.434;2023-10-08T06:51:14;99526.19;;;16.57;100.00
61573;BME280;47465;43.094;12.434;2023-10-08T06:53:44;99489.06;;;16.45;100.00
61573;BME280;47465;43.094;12.434;2023-10-08T06:56:10;99489.44;;;16.57;100.00
61573;BME280;47465;43.094;12.434;2023-10-08T06:58:38;99495.03;;;16.75;100.00
61573;BME280;47465;43.094;12.434;2023-10-08T07:01:04;99529.16;;;16.95;100.00
61573;BME280;47465;43.094;12.434;2023-10-08T07:03:31;99534.22;;;17.02;100.00
61573;BME280;47465;43.094;12.434;2023-10-08T07:05:58;99537.91;;;17.22;100.00
61573;BME280;47465;43.094;12.434;2023-10-08T07:08:29;99533.75;;;17.35;100.00
61573;BME280;47465;43.094;12.434;2023-10-08T07:10:58;99524.97;;;17.52;100.00
61573;BME280;47465;43.094;12.434;2023-10-08T07:13:27;99535.69;;;17.73;100.00
61573;BME280;47465;43.094;12.434;2023-10-08T07:15:55;99535.91;;;17.89;100.00
61573;BME280;47465;43.094;12.434;2023-10-08T07:18:22;99521.28;;;17.96;100.00
61573;BME280;47465;43.094;12.434;2023-10-08T07:20:51;99525.94;;;18.11;98.71
61573;BME280;47465;43.094;12.434;2023-10-08T07:23:21;99533.22;;;18.28;97.14
61573;BME280;47465;43.094;12.434;2023-10-08T07:26:21;99529.09;;;18.40;93.72
61573;BME280;47465;43.094;12.434;2023-10-08T07:28:50;99540.88;;;18.56;90.96
61573;BME280;47465;43.094;12.434;2023-10-08T07:31:18;99525.69;;;18.55;91.53
61573;BME280;47465;43.094;12.434;2023-10-08T07:33:48;99531.22;;;18.52;92.24
61573;BME280;47465;43.094;12.434;2023-10-08T07:36:22;99535.22;;;18.43;92.53
61573;BME280;47465;43.094;12.434;2023-10-08T07:38:48;99519.97;;;18.23;91.92
61573;BME280;47465;43.094;12.434;2023-10-08T07:41:14;99524.63;;;18.39;90.85
61573;BME280;47465;43.094;12.434;2023-10-08T07:43:41;99507.41;;;18.43;90.08
61573;BME280;47465;43.094;12.434;2023-10-08T07:46:07;99545.72;;;18.87;88.74
61573;BME280;47465;43.094;12.434;2023-10-08T07:48:34;99507.03;;;18.88;86.77
61573;BME280;47465;43.094;12.434;2023-10-08T07:51:00;99534.78;;;18.91;86.74
61573;BME280;47465;43.094;12.434;2023-10-08T07:53:27;99523.56;;;19.00;85.44
61573;BME280;47465;43.094;12.434;2023-10-08T07:56:04;99504.28;;;19.07;84.53
61573;BME280;47465;43.094;12.434;2023-10-08T07:58:32;99510.97;;;19.35;82.79
61573;BME280;47465;43.094;12.434;2023-10-08T08:01:03;99476.66;;;19.39;80.99
61573;BME280;47465;43.094;12.434;2023-10-08T08:03:29;99520.97;;;19.85;81.22
61573;BME280;47465;43.094;12.434;2023-10-08T08:05:54;99506.13;;;19.94;79.91
61573;BME280;47465;43.094;12.434;2023-10-08T08:08:21;99537.72;;;20.25;79.18
61573;BME280;47465;43.094;12.434;2023-10-08T08:10:49;99534.63;;;20.33;77.10
61573;BME280;47465;43.094;12.434;2023-10-08T08:13:15;99534.09;;;20.42;77.13
61573;BME280;47465;43.094;12.434;2023-10-08T08:15:47;99520.44;;;20.45;74.08
61573;BME280;47465;43.094;12.434;2023-10-08T08:18:18;99549.00;;;20.67;73.60
61573;BME280;47465;43.094;12.434;2023-10-08T08:20:48;99516.63;;;20.49;75.23
61573;BME280;47465;43.094;12.434;2023-10-08T08:23:14;99543.47;;;20.68;74.98
61573;BME280;47465;43.094;12.434;2023-10-08T08:25:42;99518.81;;;20.75;74.80
61573;BME280;47465;43.094;12.434;2023-10-08T08:28:12;99491.47;;;20.65;72.92
61573;BME280;47465;43.094;12.434;2023-10-08T08:30:47;99537.88;;;20.06;77.50
61573;BME280;47465;43.094;12.434;2023-10-08T08:33:13;99503.81;;;20.04;78.63
61573;BME280;47465;43.094;12.434;2023-10-08T08:35:57;99505.75;;;20.34;76.11
61573;BME280;47465;43.094;12.434;2023-10-08T08:38:23;99521.09;;;20.82;73.98
61573;BME280;47465;43.094;12.434;2023-10-08T08:40:49;99467.91;;;20.83;73.63
61573;BME280;47465;43.094;12.434;2023-10-08T08:43:15;99514.84;;;21.28;70.81
61573;BME280;47465;43.094;12.434;2023-10-08T08:45:42;99518.81;;;21.52;70.27
61573;BME280;47465;43.094;12.434;2023-10-08T08:48:09;99506.53;;;21.31;70.80
61573;BME280;47465;43.094;12.434;2023-10-08T08:50:37;99487.44;;;21.34;69.99
61573;BME280;47465;43.094;12.434;2023-10-08T08:53:05;99517.31;;;21.77;69.34
61573;BME280;47465;43.094;12.434;2023-10-08T08:55:32;99480.75;;;21.70;67.41
61573;BME280;47465;43.094;12.434;2023-10-08T08:57:59;99520.06;;;22.06;67.31
61573;BME280;47465;43.094;12.434;2023-10-08T09:00:28;99504.97;;;22.16;66.66
61573;BME280;47465;43.094;12.434;2023-10-08T09:02:55;99462.88;;;21.96;66.25
61573;BME280;47465;43.094;12.434;2023-10-08T09:05:21;99486.59;;;22.21;66.00
61573;BME280;47465;43.094;12.434;2023-10-08T09:07:55;99485.94;;;22.32;65.67
61573;BME280;47465;43.094;12.434;2023-10-08T09:10:44;99491.91;;;22.51;64.56
61573;BME280;47465;43.094;12.434;2023-10-08T09:13:19;99470.16;;;22.10;65.68
61573;BME280;47465;43.094;12.434;2023-10-08T09:15:47;99456.31;;;22.29;65.49
61573;BME280;47465;43.094;12.434;2023-10-08T09:18:14;99481.34;;;22.61;65.16
61573;BME280;47465;43.094;12.434;2023-10-08T09:20:40;99493.06;;;22.89;64.14
61573;BME280;47465;43.094;12.434;2023-10-08T09:23:10;99494.09;;;22.73;64.07
61573;BME280;47465;43.094;12.434;2023-10-08T09:25:39;99440.97;;;22.56;63.48
61573;BME280;47465;43.094;12.434;2023-10-08T09:28:07;99475.13;;;23.01;63.33
61573;BME280;47465;43.094;12.434;2023-10-08T09:30:34;99467.44;;;23.07;62.59
61573;BME280;47465;43.094;12.434;2023-10-08T09:33:04;99458.56;;;23.05;62.90
61573;BME280;47465;43.094;12.434;2023-10-08T09:35:32;99458.56;;;23.05;62.14
61573;BME280;47465;43.094;12.434;2023-10-08T09:37:59;99438.78;;;22.76;62.91
61573;BME280;47465;43.094;12.434;2023-10-08T09:40:26;99464.13;;;23.16;63.08
61573;BME280;47465;43.094;12.434;2023-10-08T09:42:52;99458.75;;;23.29;62.14
61573;BME280;47465;43.094;12.434;2023-10-08T09:45:21;99427.81;;;23.32;61.42
61573;BME280;47465;43.094;12.434;2023-10-08T09:47:50;99477.19;;;23.77;60.18
61573;BME280;47465;43.094;12.434;2023-10-08T09:50:22;99471.63;;;23.91;61.10
61573;BME280;47465;43.094;12.434;2023-10-08T09:53:01;99459.97;;;23.64;59.58
61573;BME280;47465;43.094;12.434;2023-10-08T09:55:29;99425.44;;;23.00;61.13
61573;BME280;47465;43.094;12.434;2023-10-08T09:57:55;99479.16;;;23.48;61.18
61573;BME280;47465;43.094;12.434;2023-10-08T10:00:24;99490.13;;;23.86;60.19
61573;BME280;47465;43.094;12.434;2023-10-08T10:02:59;99485.72;;;23.71;60.23
61573;BME280;47465;43.094;12.434;2023-10-08T10:05:32;99482.84;;;23.99;60.21
61573;BME280;47465;43.094;12.434;2023-10-08T10:08:02;99426.44;;;23.90;59.36
61573;BME280;47465;43.094;12.434;2023-10-08T10:10:32;99492.91;;;24.36;58.63
61573;BME280;47465;43.094;12.434;2023-10-08T10:13:00;99442.38;;;24.21;57.11
61573;BME280;47465;43.094;12.434;2023-10-08T10:15:27;99458.66;;;24.33;57.17
61573;BME280;47465;43.094;12.434;2023-10-08T10:17:59;99477.28;;;24.27;57.65
61573;BME280;47465;43.094;12.434;2023-10-08T10:20:36;99455.19;;;24.31;57.35
61573;BME280;47465;43.094;12.434;2023-10-08T10:23:34;99472.13;;;24.35;57.56
61573;BME280;47465;43.094;12.434;2023-10-08T10:26:02;99492.13;;;24.47;57.86
61573;BME280;47465;43.094;12.434;2023-10-08T10:28:28;99463.88;;;24.49;57.33
61573;BME280;47465;43.094;12.434;2023-10-08T10:31:01;99485.66;;;24.73;57.39
61573;BME280;47465;43.094;12.434;2023-10-08T10:33:32;99437.75;;;24.59;56.57
61573;BME280;47465;43.094;12.434;2023-10-08T10:36:00;99458.75;;;24.82;56.66
61573;BME280;47465;43.094;12.434;2023-10-08T10:38:27;99438.31;;;24.76;56.72
61573;BME280;47465;43.094;12.434;2023-10-08T10:40:56;99459.69;;;24.93;56.48
61573;BME280;47465;43.094;12.434;2023-10-08T10:43:24;99451.88;;;24.89;57.04
61573;BME280;47465;43.094;12.434;2023-10-08T10:46:00;99462.94;;;24.98;56.52
61573;BME280;47465;43.094;12.434;2023-10-08T10:48:46;99424.59;;;24.77;57.20
61573;BME280;47465;43.094;12.434;2023-10-08T10:51:30;99432.41;;;24.82;57.71
61573;BME280;47465;43.094;12.434;2023-10-08T10:53:57;99439.13;;;24.89;57.35
61573;BME280;47465;43.094;12.434;2023-10-08T10:56:35;99450.53;;;25.18;58.00
61573;BME280;47465;43.094;12.434;2023-10-08T10:59:10;99438.94;;;25.28;57.02
61573;BME280;47465;43.094;12.434;2023-10-08T11:02:11;99447.69;;;25.44;55.97
61573;BME280;47465;43.094;12.434;2023-10-08T11:05:19;99433.75;;;25.25;57.08
61573;BME280;47465;43.094;12.434;2023-10-08T11:07:46;99429.56;;;25.32;56.82
61573;BME280;47465;43.094;12.434;2023-10-08T11:10:16;99423.41;;;25.41;56.82
61573;BME280;47465;43.094;12.434;2023-10-08T11:12:42;99424.41;;;25.51;55.62
61573;BME280;47465;43.094;12.434;2023-10-08T11:15:12;99424.38;;;25.29;55.57
61573;BME280;47465;43.094;12.434;2023-10-08T11:17:41;99402.47;;;25.41;56.26
61573;BME280;47465;43.094;12.434;2023-10-08T11:20:25;99414.28;;;25.65;56.76
61573;BME280;47465;43.094;12.434;2023-10-08T11:22:51;99404.41;;;25.64;56.10
61573;BME280;47465;43.094;12.434;2023-10-08T11:25:22;99412.13;;;25.92;55.06
61573;BME280;47465;43.094;12.434;2023-10-08T11:27:51;99395.84;;;25.68;54.88
61573;BME280;47465;43.094;12.434;2023-10-08T11:30:24;99410.72;;;25.75;54.03
61573;BME280;47465;43.094;12.434;2023-10-08T11:32:53;99371.19;;;25.58;53.61
61573;BME280;47465;43.094;12.434;2023-10-08T11:35:19;99398.88;;;25.99;53.51
61573;BME280;47465;43.094;12.434;2023-10-08T11:37:47;99369.84;;;25.87;53.46
61573;BME280;47465;43.094;12.434;2023-10-08T11:40:22;99378.03;;;25.98;54.40
61573;BME280;47465;43.094;12.434;2023-10-08T11:42:53;99356.22;;;25.98;54.11
61573;BME280;47465;43.094;12.434;2023-10-08T11:45:25;99385.94;;;26.23;53.43
61573;BME280;47465;43.094;12.434;2023-10-08T11:47:53;99366.88;;;26.12;52.89
61573;BME280;47465;43.094;12.434;2023-10-08T11:50:26;99389.56;;;26.24;52.35
61573;BME280;47465;43.094;12.434;2023-10-08T11:53:05;99342.84;;;26.06;52.20
61573;BME280;47465;43.094;12.434;2023-10-08T11:55:32;99360.56;;;26.23;51.80
61573;BME280;47465;43.094;12.434;2023-10-08T11:58:01;99338.38;;;26.16;52.54
61573;BME280;47465;43.094;12.434;2023-10-08T12:00:27;99358.53;;;26.36;52.39
61573;BME280;47465;43.094;12.434;2023-10-08T12:02:53;99339.44;;;26.36;52.65
61573;BME280;47465;43.094;12.434;2023-10-08T12:05:20;99333.75;;;26.39;52.26
61573;BME280;47465;43.094;12.434;2023-10-08T12:07:49;99328.75;;;26.56;51.12
61573;BME280;47465;43.094;12.434;2023-10-08T12:10:18;99331.59;;;26.66;51.88
61573;BME280;47465;43.094;12.434;2023-10-08T12:12:52;99360.19;;;26.71;50.17
61573;BME280;47465;43.094;12.434;2023-10-08T12:15:19;99311.13;;;26.60;49.96
61573;BME280;47465;43.094;12.434;2023-10-08T12:17:48;99347.91;;;26.77;51.40
61573;BME280;47465;43.094;12.434;2023-10-08T12:20:57;99331.44;;;26.67;50.91
61573;BME280;47465;43.094;12.434;2023-10-08T12:23:23;99327.34;;;26.73;50.24
61573;BME280;47465;43.094;12.434;2023-10-08T12:25:52;99347.56;;;26.91;50.05
61573;BME280;47465;43.094;12.434;2023-10-08T12:28:18;99334.25;;;26.77;50.24
61573;BME280;47465;43.094;12.434;2023-10-08T12:30:44;99305.50;;;26.73;50.64
61573;BME280;47465;43.094;12.434;2023-10-08T12:33:11;99287.72;;;26.57;49.75
61573;BME280;47465;43.094;12.434;2023-10-08T12:35:41;99276.13;;;26.65;50.51
61573;BME280;47465;43.094;12.434;2023-10-08T12:38:10;99324.06;;;27.00;49.77
61573;BME280;47465;43.094;12.434;2023-10-08T12:40:36;99319.09;;;27.05;49.63
61573;BME280;47465;43.094;12.434;2023-10-08T12:43:39;99321.84;;;27.05;48.51
61573;BME280;47465;43.094;12.434;2023-10-08T12:46:08;99313.78;;;27.03;48.52
61573;BME280;47465;43.094;12.434;2023-10-08T12:48:39;99294.94;;;27.00;48.21
61573;BME280;47465;43.094;12.434;2023-10-08T12:51:05;99302.44;;;27.08;48.07
61573;BME280;47465;43.094;12.434;2023-10-08T12:53:32;99286.88;;;26.99;46.16
61573;BME280;47465;43.094;12.434;2023-10-08T12:56:07;99303.59;;;27.05;45.91
61573;BME280;47465;43.094;12.434;2023-10-08T12:58:42;99285.00;;;26.99;45.76
61573;BME280;47465;43.094;12.434;2023-10-08T13:01:10;99281.03;;;27.03;47.49
61573;BME280;47465;43.094;12.434;2023-10-08T13:03:36;99298.16;;;27.27;45.92
61573;BME280;47465;43.094;12.434;2023-10-08T13:06:07;99281.81;;;27.15;45.50
61573;BME280;47465;43.094;12.434;2023-10-08T13:08:37;99261.78;;;27.05;45.71
61573;BME280;47465;43.094;12.434;2023-10-08T13:11:03;99264.84;;;27.12;45.79